sensor_id;sensor_type;location;lat;lon;timestamp;temperature;humidity
15357;DHT22;7778;48.792;9.260;2023-05-16T00:01:47;12.50;99.90
15357;DHT22;7778;48.792;9.260;2023-05-16T00:04:34;12.50;99.90
15357;DHT22;7778;48.792;9.260;2023-05-16T00:07:20;12.50;99.90
15357;DHT22;7778;48.792;9.260;2023-05-16T00:10:07;12.50;99.90
15357;DHT22;7778;48.792;9.260;2023-05-16T00:12:53;12.50;99.90
15357;DHT22;7778;48.792;9.260;2023-05-16T00:15:39;12.50;99.90
15357;DHT22;7778;48.792;9.260;2023-05-16T00:18:27;12.50;99.90
15357;DHT22;7778;48.792;9.260;2023-05-16T00:21:14;12.60;99.90
15357;DHT22;7778;48.792;9.260;2023-05-16T00:24:00;12.50;99.90
15357;DHT22;7778;48.792;9.260;2023-05-16T00:26:47;12.40;99.90
15357;DHT22;7778;48.792;9.260;2023-05-16T00:29:33;12.40;99.90
15357;DHT22;7778;48.792;9.260;2023-05-16T00:32:19;12.40;99.90
15357;DHT22;7778;48.792;9.260;2023-05-16T00:35:05;12.50;99.90
15357;DHT22;7778;48.792;9.260;2023-05-16T00:37:54;12.40;99.90
15357;DHT22;7778;48.792;9.260;2023-05-16T00:40:40;12.50;99.90
15357;DHT22;7778;48.792;9.260;2023-05-16T00:43:26;12.40;99.90
15357;DHT22;7778;48.792;9.260;2023-05-16T00:46:11;12.40;99.90
15357;DHT22;7778;48.792;9.260;2023-05-16T00:48:57;12.40;99.90
15357;DHT22;7778;48.792;9.260;2023-05-16T00:51:43;12.40;99.90
15357;DHT22;7778;48.792;9.260;2023-05-16T00:54:30;12.40;99.90
15357;DHT22;7778;48.792;9.260;2023-05-16T00:57:16;12.50;99.90
15357;DHT22;7778;48.792;9.260;2023-05-16T01:00:03;12.40;99.90
15357;DHT22;7778;48.792;9.260;2023-05-16T01:02:50;12.40;99.90
15357;DHT22;7778;48.792;9.260;2023-05-16T01:05:36;12.40;99.90
15357;DHT22;7778;48.792;9.260;2023-05-16T01:08:21;12.40;99.90
15357;DHT22;7778;48.792;9.260;2023-05-16T01:11:14;12.40;99.90
15357;DHT22;7778;48.792;9.260;2023-05-16T01:14:11;12.40;99.90
15357;DHT22;7778;48.792;9.260;2023-05-16T01:17:06;12.40;99.90
15357;DHT22;7778;48.792;9.260;2023-05-16T01:20:02;12.40;99.90
15357;DHT22;7778;48.792;9.260;2023-05-16T01:23:04;12.30;99.90
15357;DHT22;7778;48.792;9.260;2023-05-16T01:26:14;12.30;99.90
15357;DHT22;7778;48.792;9.260;2023-05-16T01:29:01;12.20;99.90
15357;DHT22;7778;48.792;9.260;2023-05-16T01:31:47;12.20;99.90
15357;DHT22;7778;48.792;9.260;2023-05-16T01:34:33;12.20;99.90
15357;DHT22;7778;48.792;9.260;2023-05-16T01:37:20;12.20;99.90
15357;DHT22;7778;48.792;9.260;2023-05-16T01:40:15;12.20;99.90
15357;DHT22;7778;48.792;9.260;2023-05-16T01:43:10;12.20;99.90
15357;DHT22;7778;48.792;9.260;2023-05-16T01:46:03;12.20;99.90
15357;DHT22;7778;48.792;9.260;2023-05-16T01:48:57;12.20;99.90
15357;DHT22;7778;48.792;9.260;2023-05-16T01:51:51;12.10;99.90
15357;DHT22;7778;48.792;9.260;2023-05-16T01:54:43;12.00;99.90
15357;DHT22;7778;48.792;9.260;2023-05-16T01:57:30;11.90;99.90
15357;DHT22;7778;48.792;9.260;2023-05-16T02:00:18;11.80;99.90
15357;DHT22;7778;48.792;9.260;2023-05-16T02:03:04;11.60;99.90
15357;DHT22;7778;48.792;9.260;2023-05-16T02:05:50;11.60;99.90
15357;DHT22;7778;48.792;9.260;2023-05-16T02:08:36;11.70;99.90
15357;DHT22;7778;48.792;9.260;2023-05-16T02:11:22;11.80;99.90
15357;DHT22;7778;48.792;9.260;2023-05-16T02:14:07;11.90;99.90
15357;DHT22;7778;48.792;9.260;2023-05-16T02:16:54;12.00;99.90
15357;DHT22;7778;48.792;9.260;2023-05-16T02:19:40;12.00;99.90
15357;DHT22;7778;48.792;9.260;2023-05-16T02:22:25;12.10;99.90
15357;DHT22;7778;48.792;9.260;2023-05-16T02:25:11;12.00;99.90
15357;DHT22;7778;48.792;9.260;2023-05-16T02:27:57;12.00;99.90
15357;DHT22;7778;48.792;9.260;2023-05-16T02:30:43;12.10;99.90
15357;DHT22;7778;48.792;9.260;2023-05-16T02:33:30;12.10;99.90
15357;DHT22;7778;48.792;9.260;2023-05-16T02:36:16;12.10;99.90
15357;DHT22;7778;48.792;9.260;2023-05-16T02:39:01;12.20;99.90
15357;DHT22;7778;48.792;9.260;2023-05-16T02:41:48;12.00;99.90
15357;DHT22;7778;48.792;9.260;2023-05-16T02:44:33;12.00;99.90
15357;DHT22;7778;48.792;9.260;2023-05-16T02:47:19;12.00;99.90
15357;DHT22;7778;48.792;9.260;2023-05-16T02:50:07;11.90;99.90
15357;DHT22;7778;48.792;9.260;2023-05-16T02:52:53;11.90;99.90
15357;DHT22;7778;48.792;9.260;2023-05-16T02:55:38;11.90;99.90
15357;DHT22;7778;48.792;9.260;2023-05-16T02:58:24;11.80;99.90
15357;DHT22;7778;48.792;9.260;2023-05-16T03:01:09;11.80;99.90
15357;DHT22;7778;48.792;9.260;2023-05-16T03:03:55;11.70;99.90
15357;DHT22;7778;48.792;9.260;2023-05-16T03:06:42;12.00;99.90
15357;DHT22;7778;48.792;9.260;2023-05-16T03:09:27;12.00;99.90
15357;DHT22;7778;48.792;9.260;2023-05-16T03:12:13;12.00;99.90
15357;DHT22;7778;48.792;9.260;2023-05-16T03:14:58;12.00;99.90
15357;DHT22;7778;48.792;9.260;2023-05-16T03:17:44;12.00;99.90
15357;DHT22;7778;48.792;9.260;2023-05-16T03:20:30;11.90;99.90
15357;DHT22;7778;48.792;9.260;2023-05-16T03:23:17;12.10;99.90
15357;DHT22;7778;48.792;9.260;2023-05-16T03:26:03;11.80;99.90
15357;DHT22;7778;48.792;9.260;2023-05-16T03:28:49;11.80;99.90
15357;DHT22;7778;48.792;9.260;2023-05-16T03:31:35;11.70;99.90
15357;DHT22;7778;48.792;9.260;2023-05-16T03:34:20;11.60;99.90
15357;DHT22;7778;48.792;9.260;2023-05-16T03:37:07;11.50;99.90
15357;DHT22;7778;48.792;9.260;2023-05-16T03:39:55;11.50;99.90
15357;DHT22;7778;48.792;9.260;2023-05-16T03:42:41;11.60;99.90
15357;DHT22;7778;48.792;9.260;2023-05-16T03:45:27;11.70;99.90
15357;DHT22;7778;48.792;9.260;2023-05-16T03:48:14;11.70;99.90
15357;DHT22;7778;48.792;9.260;2023-05-16T03:50:59;11.70;99.90
15357;DHT22;7778;48.792;9.260;2023-05-16T03:53:45;11.70;99.90
15357;DHT22;7778;48.792;9.260;2023-05-16T03:56:33;11.80;99.90
15357;DHT22;7778;48.792;9.260;2023-05-16T03:59:19;11.70;99.90
15357;DHT22;7778;48.792;9.260;2023-05-16T04:02:05;11.80;99.90
15357;DHT22;7778;48.792;9.260;2023-05-16T04:04:50;11.80;99.90
15357;DHT22;7778;48.792;9.260;2023-05-16T04:07:37;11.90;99.90
15357;DHT22;7778;48.792;9.260;2023-05-16T04:10:23;11.80;99.90
15357;DHT22;7778;48.792;9.260;2023-05-16T04:13:10;11.80;99.90
15357;DHT22;7778;48.792;9.260;2023-05-16T04:15:55;11.90;99.90
15357;DHT22;7778;48.792;9.260;2023-05-16T04:18:41;11.90;99.90
15357;DHT22;7778;48.792;9.260;2023-05-16T04:21:27;12.00;99.90
15357;DHT22;7778;48.792;9.260;2023-05-16T04:24:12;12.10;99.90
15357;DHT22;7778;48.792;9.260;2023-05-16T04:26:58;12.10;99.90
15357;DHT22;7778;48.792;9.260;2023-05-16T04:29:46;12.30;99.90
15357;DHT22;7778;48.792;9.260;2023-05-16T04:32:32;12.20;99.90
15357;DHT22;7778;48.792;9.260;2023-05-16T04:35:20;12.30;99.90
15357;DHT22;7778;48.792;9.260;2023-05-16T04:38:06;12.40;99.90
15357;DHT22;7778;48.792;9.260;2023-05-16T04:40:51;12.40;99.90
15357;DHT22;7778;48.792;9.260;2023-05-16T04:43:37;12.40;99.90
15357;DHT22;7778;48.792;9.260;2023-05-16T04:46:25;12.50;99.90
15357;DHT22;7778;48.792;9.260;2023-05-16T04:49:10;12.50;99.90
15357;DHT22;7778;48.792;9.260;2023-05-16T04:51:56;12.50;99.90
15357;DHT22;7778;48.792;9.260;2023-05-16T04:54:41;12.50;99.90
15357;DHT22;7778;48.792;9.260;2023-05-16T04:57:27;12.40;99.90
15357;DHT22;7778;48.792;9.260;2023-05-16T05:00:14;12.40;99.90
15357;DHT22;7778;48.792;9.260;2023-05-16T05:03:02;12.50;99.90
15357;DHT22;7778;48.792;9.260;2023-05-16T05:05:47;12.60;99.90
15357;DHT22;7778;48.792;9.260;2023-05-16T05:08:33;12.40;99.90
15357;DHT22;7778;48.792;9.260;2023-05-16T05:11:19;12.50;99.90
15357;DHT22;7778;48.792;9.260;2023-05-16T05:14:05;12.60;99.90
15357;DHT22;7778;48.792;9.260;2023-05-16T05:16:50;12.70;99.90
15357;DHT22;7778;48.792;9.260;2023-05-16T05:19:37;12.80;99.90
15357;DHT22;7778;48.792;9.260;2023-05-16T05:22:23;12.70;99.90
15357;DHT22;7778;48.792;9.260;2023-05-16T05:25:09;12.70;99.90
15357;DHT22;7778;48.792;9.260;2023-05-16T05:27:55;12.60;99.90
15357;DHT22;7778;48.792;9.260;2023-05-16T05:30:40;12.70;99.90
15357;DHT22;7778;48.792;9.260;2023-05-16T05:33:27;12.70;99.90
15357;DHT22;7778;48.792;9.260;2023-05-16T05:36:13;12.60;99.90
15357;DHT22;7778;48.792;9.260;2023-05-16T05:39:00;12.50;99.90
15357;DHT22;7778;48.792;9.260;2023-05-16T05:41:45;12.40;99.90
15357;DHT22;7778;48.792;9.260;2023-05-16T05:44:31;12.40;99.90
15357;DHT22;7778;48.792;9.260;2023-05-16T05:47:17;12.40;99.90
15357;DHT22;7778;48.792;9.260;2023-05-16T05:50:03;12.40;99.90
15357;DHT22;7778;48.792;9.260;2023-05-16T05:52:51;12.30;99.90
15357;DHT22;7778;48.792;9.260;2023-05-16T05:55:37;12.40;99.90
15357;DHT22;7778;48.792;9.260;2023-05-16T05:58:24;12.60;99.90
15357;DHT22;7778;48.792;9.260;2023-05-16T06:01:10;12.60;99.90
15357;DHT22;7778;48.792;9.260;2023-05-16T06:03:56;12.60;99.90
15357;DHT22;7778;48.792;9.260;2023-05-16T06:06:42;12.60;99.90
15357;DHT22;7778;48.792;9.260;2023-05-16T06:09:28;12.80;99.90
15357;DHT22;7778;48.792;9.260;2023-05-16T06:12:14;12.70;99.90
15357;DHT22;7778;48.792;9.260;2023-05-16T06:15:00;12.80;99.90
15357;DHT22;7778;48.792;9.260;2023-05-16T06:17:46;12.90;99.90
15357;DHT22;7778;48.792;9.260;2023-05-16T06:20:31;12.90;99.90
15357;DHT22;7778;48.792;9.260;2023-05-16T06:23:17;12.90;99.90
15357;DHT22;7778;48.792;9.260;2023-05-16T06:26:04;13.20;99.90
15357;DHT22;7778;48.792;9.260;2023-05-16T06:28:55;13.10;99.90
15357;DHT22;7778;48.792;9.260;2023-05-16T06:31:42;13.30;99.90
15357;DHT22;7778;48.792;9.260;2023-05-16T06:34:28;13.30;99.90
15357;DHT22;7778;48.792;9.260;2023-05-16T06:37:15;13.30;99.90
15357;DHT22;7778;48.792;9.260;2023-05-16T06:40:03;13.30;99.90
15357;DHT22;7778;48.792;9.260;2023-05-16T06:42:52;13.30;99.90
15357;DHT22;7778;48.792;9.260;2023-05-16T06:45:37;13.30;99.90
15357;DHT22;7778;48.792;9.260;2023-05-16T06:48:22;13.20;99.90
15357;DHT22;7778;48.792;9.260;2023-05-16T06:51:09;13.20;99.90
15357;DHT22;7778;48.792;9.260;2023-05-16T06:53:55;13.10;99.90
15357;DHT22;7778;48.792;9.260;2023-05-16T06:56:40;13.10;99.90
15357;DHT22;7778;48.792;9.260;2023-05-16T06:59:27;13.20;99.90
15357;DHT22;7778;48.792;9.260;2023-05-16T07:02:13;13.10;99.90
15357;DHT22;7778;48.792;9.260;2023-05-16T07:04:58;13.30;99.90
15357;DHT22;7778;48.792;9.260;2023-05-16T07:07:44;13.20;99.90
15357;DHT22;7778;48.792;9.260;2023-05-16T07:10:30;13.20;99.90
15357;DHT22;7778;48.792;9.260;2023-05-16T07:13:16;13.20;99.90
15357;DHT22;7778;48.792;9.260;2023-05-16T07:16:03;13.30;99.90
15357;DHT22;7778;48.792;9.260;2023-05-16T07:18:51;13.40;99.90
15357;DHT22;7778;48.792;9.260;2023-05-16T07:21:36;13.30;99.90
15357;DHT22;7778;48.792;9.260;2023-05-16T07:24:22;13.10;99.90
15357;DHT22;7778;48.792;9.260;2023-05-16T07:27:07;13.10;99.90
15357;DHT22;7778;48.792;9.260;2023-05-16T07:29:53;13.10;99.90
15357;DHT22;7778;48.792;9.260;2023-05-16T07:32:40;13.10;99.90
15357;DHT22;7778;48.792;9.260;2023-05-16T07:35:26;13.20;99.90
15357;DHT22;7778;48.792;9.260;2023-05-16T07:38:12;13.30;99.90
15357;DHT22;7778;48.792;9.260;2023-05-16T07:40:57;13.40;99.90
15357;DHT22;7778;48.792;9.260;2023-05-16T07:43:43;13.50;99.90
15357;DHT22;7778;48.792;9.260;2023-05-16T07:46:29;13.50;99.90
15357;DHT22;7778;48.792;9.260;2023-05-16T07:49:16;13.40;99.90
15357;DHT22;7778;48.792;9.260;2023-05-16T07:52:01;13.50;99.90
15357;DHT22;7778;48.792;9.260;2023-05-16T07:54:47;13.50;99.90
15357;DHT22;7778;48.792;9.260;2023-05-16T07:57:33;13.50;99.90
15357;DHT22;7778;48.792;9.260;2023-05-16T08:00:19;13.50;99.90
15357;DHT22;7778;48.792;9.260;2023-05-16T08:03:05;13.60;99.90
15357;DHT22;7778;48.792;9.260;2023-05-16T08:05:52;13.70;99.90
15357;DHT22;7778;48.792;9.260;2023-05-16T08:08:38;13.70;99.90
15357;DHT22;7778;48.792;9.260;2023-05-16T08:11:24;13.60;99.90
15357;DHT22;7778;48.792;9.260;2023-05-16T08:14:13;13.70;99.90
15357;DHT22;7778;48.792;9.260;2023-05-16T08:16:58;13.70;99.90
15357;DHT22;7778;48.792;9.260;2023-05-16T08:19:44;13.90;99.90
15357;DHT22;7778;48.792;9.260;2023-05-16T08:22:32;13.90;99.90
15357;DHT22;7778;48.792;9.260;2023-05-16T08:25:18;13.90;99.90
15357;DHT22;7778;48.792;9.260;2023-05-16T08:28:04;13.70;99.90
15357;DHT22;7778;48.792;9.260;2023-05-16T08:30:49;13.80;99.90
15357;DHT22;7778;48.792;9.260;2023-05-16T08:33:35;13.50;99.90
15357;DHT22;7778;48.792;9.260;2023-05-16T08:36:21;13.60;99.90
15357;DHT22;7778;48.792;9.260;2023-05-16T08:39:08;13.60;99.90
15357;DHT22;7778;48.792;9.260;2023-05-16T08:41:54;13.80;99.90
15357;DHT22;7778;48.792;9.260;2023-05-16T08:44:40;13.60;99.90
15357;DHT22;7778;48.792;9.260;2023-05-16T08:47:26;13.50;99.90
15357;DHT22;7778;48.792;9.260;2023-05-16T08:50:15;13.40;99.90
15357;DHT22;7778;48.792;9.260;2023-05-16T08:53:04;13.20;99.90
15357;DHT22;7778;48.792;9.260;2023-05-16T08:55:53;13.20;99.90
15357;DHT22;7778;48.792;9.260;2023-05-16T08:58:39;13.00;99.90
15357;DHT22;7778;48.792;9.260;2023-05-16T09:01:25;12.80;99.90
15357;DHT22;7778;48.792;9.260;2023-05-16T09:04:11;12.80;99.90
15357;DHT22;7778;48.792;9.260;2023-05-16T09:06:56;12.90;99.90
15357;DHT22;7778;48.792;9.260;2023-05-16T09:09:42;13.00;99.90
15357;DHT22;7778;48.792;9.260;2023-05-16T09:12:29;13.00;99.90
15357;DHT22;7778;48.792;9.260;2023-05-16T09:15:17;13.00;99.90
15357;DHT22;7778;48.792;9.260;2023-05-16T09:18:11;13.00;99.90
15357;DHT22;7778;48.792;9.260;2023-05-16T09:20:59;12.90;99.90
15357;DHT22;7778;48.792;9.260;2023-05-16T09:23:47;12.70;99.90
15357;DHT22;7778;48.792;9.260;2023-05-16T09:26:35;12.80;99.90
15357;DHT22;7778;48.792;9.260;2023-05-16T09:29:23;12.80;99.90
15357;DHT22;7778;48.792;9.260;2023-05-16T09:32:09;12.90;99.90
15357;DHT22;7778;48.792;9.260;2023-05-16T09:34:57;12.80;99.90
15357;DHT22;7778;48.792;9.260;2023-05-16T09:37:47;12.80;99.90
15357;DHT22;7778;48.792;9.260;2023-05-16T09:40:33;12.90;99.90
15357;DHT22;7778;48.792;9.260;2023-05-16T09:43:21;12.90;99.90
15357;DHT22;7778;48.792;9.260;2023-05-16T09:46:13;13.10;99.90
15357;DHT22;7778;48.792;9.260;2023-05-16T09:48:59;13.20;99.90
15357;DHT22;7778;48.792;9.260;2023-05-16T09:51:48;13.10;99.90
15357;DHT22;7778;48.792;9.260;2023-05-16T09:54:34;13.20;99.90
15357;DHT22;7778;48.792;9.260;2023-05-16T09:57:20;13.30;99.90
15357;DHT22;7778;48.792;9.260;2023-05-16T10:00:08;13.50;99.90
15357;DHT22;7778;48.792;9.260;2023-05-16T10:02:58;13.80;99.90
15357;DHT22;7778;48.792;9.260;2023-05-16T10:05:46;13.80;99.90
15357;DHT22;7778;48.792;9.260;2023-05-16T10:08:33;13.60;99.90
15357;DHT22;7778;48.792;9.260;2023-05-16T10:11:20;13.70;99.90
15357;DHT22;7778;48.792;9.260;2023-05-16T10:14:06;14.00;99.90
15357;DHT22;7778;48.792;9.260;2023-05-16T10:16:53;13.80;99.90
15357;DHT22;7778;48.792;9.260;2023-05-16T10:19:42;13.80;99.90
15357;DHT22;7778;48.792;9.260;2023-05-16T10:22:28;13.80;99.90
15357;DHT22;7778;48.792;9.260;2023-05-16T10:25:24;13.90;99.90
15357;DHT22;7778;48.792;9.260;2023-05-16T10:28:11;14.10;99.90
15357;DHT22;7778;48.792;9.260;2023-05-16T10:30:58;14.10;99.90
15357;DHT22;7778;48.792;9.260;2023-05-16T10:33:46;14.00;99.90
15357;DHT22;7778;48.792;9.260;2023-05-16T10:36:34;14.30;99.90
15357;DHT22;7778;48.792;9.260;2023-05-16T10:39:21;14.50;99.90
15357;DHT22;7778;48.792;9.260;2023-05-16T10:42:07;14.30;99.90
15357;DHT22;7778;48.792;9.260;2023-05-16T10:44:53;14.00;99.90
15357;DHT22;7778;48.792;9.260;2023-05-16T10:47:39;13.80;99.90
15357;DHT22;7778;48.792;9.260;2023-05-16T10:50:32;13.70;99.90
15357;DHT22;7778;48.792;9.260;2023-05-16T10:53:22;13.70;99.90
15357;DHT22;7778;48.792;9.260;2023-05-16T10:56:13;13.80;99.90
15357;DHT22;7778;48.792;9.260;2023-05-16T10:58:59;13.90;99.90
15357;DHT22;7778;48.792;9.260;2023-05-16T11:01:51;14.00;99.90
15357;DHT22;7778;48.792;9.260;2023-05-16T11:04:56;14.00;99.90
15357;DHT22;7778;48.792;9.260;2023-05-16T11:07:43;14.10;99.90
15357;DHT22;7778;48.792;9.260;2023-05-16T11:10:30;14.00;99.90
15357;DHT22;7778;48.792;9.260;2023-05-16T11:13:23;13.80;99.90
15357;DHT22;7778;48.792;9.260;2023-05-16T11:16:28;13.70;99.90
15357;DHT22;7778;48.792;9.260;2023-05-16T11:19:28;13.60;99.90
15357;DHT22;7778;48.792;9.260;2023-05-16T11:22:23;13.30;99.90
15357;DHT22;7778;48.792;9.260;2023-05-16T11:25:10;13.20;99.90
15357;DHT22;7778;48.792;9.260;2023-05-16T11:27:58;13.10;99.90
15357;DHT22;7778;48.792;9.260;2023-05-16T11:30:45;13.20;99.90
15357;DHT22;7778;48.792;9.260;2023-05-16T11:33:32;13.10;99.90
15357;DHT22;7778;48.792;9.260;2023-05-16T11:36:19;13.10;99.90
15357;DHT22;7778;48.792;9.260;2023-05-16T11:39:06;13.00;99.90
15357;DHT22;7778;48.792;9.260;2023-05-16T11:41:53;13.00;99.90
15357;DHT22;7778;48.792;9.260;2023-05-16T11:44:40;12.80;99.90
15357;DHT22;7778;48.792;9.260;2023-05-16T11:47:26;12.80;99.90
15357;DHT22;7778;48.792;9.260;2023-05-16T11:50:14;12.70;99.90
15357;DHT22;7778;48.792;9.260;2023-05-16T11:53:01;12.60;99.90
15357;DHT22;7778;48.792;9.260;2023-05-16T11:55:47;12.60;99.90
15357;DHT22;7778;48.792;9.260;2023-05-16T11:58:35;12.70;99.90
15357;DHT22;7778;48.792;9.260;2023-05-16T12:01:22;12.70;99.90
15357;DHT22;7778;48.792;9.260;2023-05-16T12:04:08;12.60;99.90
15357;DHT22;7778;48.792;9.260;2023-05-16T12:06:59;12.50;99.90
15357;DHT22;7778;48.792;9.260;2023-05-16T12:09:51;12.60;99.90
15357;DHT22;7778;48.792;9.260;2023-05-16T12:12:40;12.50;99.90
15357;DHT22;7778;48.792;9.260;2023-05-16T12:15:27;12.50;99.90
15357;DHT22;7778;48.792;9.260;2023-05-16T12:18:14;12.50;99.90
15357;DHT22;7778;48.792;9.260;2023-05-16T12:21:01;12.70;99.90
15357;DHT22;7778;48.792;9.260;2023-05-16T12:23:46;12.60;99.90
15357;DHT22;7778;48.792;9.260;2023-05-16T12:26:32;12.80;99.90
15357;DHT22;7778;48.792;9.260;2023-05-16T12:29:20;12.90;99.90
15357;DHT22;7778;48.792;9.260;2023-05-16T12:32:08;13.10;99.90
15357;DHT22;7778;48.792;9.260;2023-05-16T12:34:55;13.20;99.90
15357;DHT22;7778;48.792;9.260;2023-05-16T12:37:42;13.20;99.90
15357;DHT22;7778;48.792;9.260;2023-05-16T12:40:28;13.20;99.90
15357;DHT22;7778;48.792;9.260;2023-05-16T12:43:15;13.30;99.90
15357;DHT22;7778;48.792;9.260;2023-05-16T12:46:01;13.30;99.90
15357;DHT22;7778;48.792;9.260;2023-05-16T12:48:47;13.30;99.90
15357;DHT22;7778;48.792;9.260;2023-05-16T12:51:34;13.40;99.90
15357;DHT22;7778;48.792;9.260;2023-05-16T12:54:20;13.40;99.90
15357;DHT22;7778;48.792;9.260;2023-05-16T12:57:06;13.50;99.90
15357;DHT22;7778;48.792;9.260;2023-05-16T12:59:53;13.50;99.90
15357;DHT22;7778;48.792;9.260;2023-05-16T13:02:39;13.50;99.90
15357;DHT22;7778;48.792;9.260;2023-05-16T13:05:25;13.60;99.90
15357;DHT22;7778;48.792;9.260;2023-05-16T13:08:12;13.60;99.90
15357;DHT22;7778;48.792;9.260;2023-05-16T13:10:57;13.60;99.90
15357;DHT22;7778;48.792;9.260;2023-05-16T13:13:43;13.50;99.90
15357;DHT22;7778;48.792;9.260;2023-05-16T13:16:29;13.40;99.90
15357;DHT22;7778;48.792;9.260;2023-05-16T13:19:15;13.30;99.90
15357;DHT22;7778;48.792;9.260;2023-05-16T13:22:01;13.40;99.90
15357;DHT22;7778;48.792;9.260;2023-05-16T13:24:48;13.60;99.90
15357;DHT22;7778;48.792;9.260;2023-05-16T13:27:34;13.70;99.90
15357;DHT22;7778;48.792;9.260;2023-05-16T13:30:19;13.60;99.90
15357;DHT22;7778;48.792;9.260;2023-05-16T13:33:05;13.70;99.90
15357;DHT22;7778;48.792;9.260;2023-05-16T13:35:50;13.80;99.90
15357;DHT22;7778;48.792;9.260;2023-05-16T13:38:36;13.70;99.90
15357;DHT22;7778;48.792;9.260;2023-05-16T13:41:23;13.60;99.90
15357;DHT22;7778;48.792;9.260;2023-05-16T13:44:09;13.70;99.90
15357;DHT22;7778;48.792;9.260;2023-05-16T13:46:56;13.70;99.90
15357;DHT22;7778;48.792;9.260;2023-05-16T13:49:42;13.50;99.90
15357;DHT22;7778;48.792;9.260;2023-05-16T13:52:27;13.40;99.90
15357;DHT22;7778;48.792;9.260;2023-05-16T13:55:13;13.20;99.90
15357;DHT22;7778;48.792;9.260;2023-05-16T13:58:00;13.20;99.90
15357;DHT22;7778;48.792;9.260;2023-05-16T14:00:47;13.10;99.90
15357;DHT22;7778;48.792;9.260;2023-05-16T14:03:33;13.00;99.90
15357;DHT22;7778;48.792;9.260;2023-05-16T14:06:20;12.90;99.90
15357;DHT22;7778;48.792;9.260;2023-05-16T14:09:05;13.00;99.90
15357;DHT22;7778;48.792;9.260;2023-05-16T14:11:51;13.10;99.90
15357;DHT22;7778;48.792;9.260;2023-05-16T14:14:38;12.90;99.90
15357;DHT22;7778;48.792;9.260;2023-05-16T14:17:24;13.00;99.90
15357;DHT22;7778;48.792;9.260;2023-05-16T14:20:11;13.10;99.90
15357;DHT22;7778;48.792;9.260;2023-05-16T14:22:58;13.20;99.90
15357;DHT22;7778;48.792;9.260;2023-05-16T14:25:44;13.30;99.90
15357;DHT22;7778;48.792;9.260;2023-05-16T14:28:29;13.40;99.90
15357;DHT22;7778;48.792;9.260;2023-05-16T14:31:17;13.50;99.90
15357;DHT22;7778;48.792;9.260;2023-05-16T14:34:03;13.20;99.90
15357;DHT22;7778;48.792;9.260;2023-05-16T14:36:49;13.10;99.90
15357;DHT22;7778;48.792;9.260;2023-05-16T14:39:35;13.00;99.90
15357;DHT22;7778;48.792;9.260;2023-05-16T14:42:20;13.10;99.90
15357;DHT22;7778;48.792;9.260;2023-05-16T14:45:07;13.20;99.90
15357;DHT22;7778;48.792;9.260;2023-05-16T14:47:55;13.30;99.90
15357;DHT22;7778;48.792;9.260;2023-05-16T14:50:43;13.70;99.90
15357;DHT22;7778;48.792;9.260;2023-05-16T14:53:29;13.80;99.90
15357;DHT22;7778;48.792;9.260;2023-05-16T14:56:15;13.80;99.90
15357;DHT22;7778;48.792;9.260;2023-05-16T14:59:00;14.00;99.90
15357;DHT22;7778;48.792;9.260;2023-05-16T15:01:46;13.90;99.90
15357;DHT22;7778;48.792;9.260;2023-05-16T15:04:34;13.90;99.90
15357;DHT22;7778;48.792;9.260;2023-05-16T15:07:19;13.90;99.90
15357;DHT22;7778;48.792;9.260;2023-05-16T15:10:06;13.70;99.90
15357;DHT22;7778;48.792;9.260;2023-05-16T15:12:52;13.50;99.90
15357;DHT22;7778;48.792;9.260;2023-05-16T15:15:38;13.50;99.90
15357;DHT22;7778;48.792;9.260;2023-05-16T15:18:24;13.40;99.90
15357;DHT22;7778;48.792;9.260;2023-05-16T15:21:11;13.40;99.90
15357;DHT22;7778;48.792;9.260;2023-05-16T15:23:56;13.20;99.90
15357;DHT22;7778;48.792;9.260;2023-05-16T15:26:42;13.10;99.90
15357;DHT22;7778;48.792;9.260;2023-05-16T15:29:28;13.10;99.90
15357;DHT22;7778;48.792;9.260;2023-05-16T15:32:14;13.10;99.90
15357;DHT22;7778;48.792;9.260;2023-05-16T15:35:01;13.10;99.90
15357;DHT22;7778;48.792;9.260;2023-05-16T15:37:48;13.30;99.90
15357;DHT22;7778;48.792;9.260;2023-05-16T15:40:34;13.40;99.90
15357;DHT22;7778;48.792;9.260;2023-05-16T15:43:20;13.50;99.90
15357;DHT22;7778;48.792;9.260;2023-05-16T15:46:07;13.70;99.90
15357;DHT22;7778;48.792;9.260;2023-05-16T15:48:54;13.80;99.90
15357;DHT22;7778;48.792;9.260;2023-05-16T15:51:39;13.80;99.90
15357;DHT22;7778;48.792;9.260;2023-05-16T15:54:26;13.70;99.90
15357;DHT22;7778;48.792;9.260;2023-05-16T15:57:12;13.70;99.90
15357;DHT22;7778;48.792;9.260;2023-05-16T15:59:58;13.80;99.90
15357;DHT22;7778;48.792;9.260;2023-05-16T16:02:44;13.60;99.90
15357;DHT22;7778;48.792;9.260;2023-05-16T16:05:31;13.70;99.90
15357;DHT22;7778;48.792;9.260;2023-05-16T16:08:17;13.40;99.90
15357;DHT22;7778;48.792;9.260;2023-05-16T16:11:04;13.40;99.90
15357;DHT22;7778;48.792;9.260;2023-05-16T16:13:49;13.40;99.90
15357;DHT22;7778;48.792;9.260;2023-05-16T16:16:35;13.50;99.90
15357;DHT22;7778;48.792;9.260;2023-05-16T16:19:22;13.50;99.90
15357;DHT22;7778;48.792;9.260;2023-05-16T16:22:08;13.40;99.90
15357;DHT22;7778;48.792;9.260;2023-05-16T16:24:54;13.50;99.90
15357;DHT22;7778;48.792;9.260;2023-05-16T16:27:41;13.50;99.90
15357;DHT22;7778;48.792;9.260;2023-05-16T16:30:27;13.30;99.90
15357;DHT22;7778;48.792;9.260;2023-05-16T16:33:12;13.30;99.90
15357;DHT22;7778;48.792;9.260;2023-05-16T16:35:58;13.30;99.90
15357;DHT22;7778;48.792;9.260;2023-05-16T16:38:44;13.20;99.90
15357;DHT22;7778;48.792;9.260;2023-05-16T16:41:30;13.20;99.90
15357;DHT22;7778;48.792;9.260;2023-05-16T16:44:18;13.20;99.90
15357;DHT22;7778;48.792;9.260;2023-05-16T16:47:04;13.30;99.90
15357;DHT22;7778;48.792;9.260;2023-05-16T16:49:50;13.40;99.90
15357;DHT22;7778;48.792;9.260;2023-05-16T16:52:35;13.50;99.90
15357;DHT22;7778;48.792;9.260;2023-05-16T16:55:21;13.40;99.90
15357;DHT22;7778;48.792;9.260;2023-05-16T16:58:06;13.40;99.90
15357;DHT22;7778;48.792;9.260;2023-05-16T17:00:53;13.40;99.90
15357;DHT22;7778;48.792;9.260;2023-05-16T17:03:39;13.50;99.90
15357;DHT22;7778;48.792;9.260;2023-05-16T17:06:25;13.50;99.90
15357;DHT22;7778;48.792;9.260;2023-05-16T17:09:11;13.40;99.90
15357;DHT22;7778;48.792;9.260;2023-05-16T17:11:58;13.40;99.90
15357;DHT22;7778;48.792;9.260;2023-05-16T17:14:48;13.20;99.90
15357;DHT22;7778;48.792;9.260;2023-05-16T17:17:35;13.20;99.90
15357;DHT22;7778;48.792;9.260;2023-05-16T17:20:21;13.20;99.90
15357;DHT22;7778;48.792;9.260;2023-05-16T17:23:07;13.30;99.90
15357;DHT22;7778;48.792;9.260;2023-05-16T17:25:52;13.30;99.90
15357;DHT22;7778;48.792;9.260;2023-05-16T17:28:38;13.30;99.90
15357;DHT22;7778;48.792;9.260;2023-05-16T17:31:23;13.20;99.90
15357;DHT22;7778;48.792;9.260;2023-05-16T17:34:10;13.20;99.90
15357;DHT22;7778;48.792;9.260;2023-05-16T17:36:56;13.30;99.90
15357;DHT22;7778;48.792;9.260;2023-05-16T17:39:42;13.30;99.90
15357;DHT22;7778;48.792;9.260;2023-05-16T17:42:27;13.30;99.90
15357;DHT22;7778;48.792;9.260;2023-05-16T17:45:13;13.40;99.90
15357;DHT22;7778;48.792;9.260;2023-05-16T17:47:59;13.30;99.90
15357;DHT22;7778;48.792;9.260;2023-05-16T17:50:46;13.30;99.90